sensor_id;sensor_type;location;lat;lon;timestamp;noise_LAeq;noise_LA_min;noise_LA_max;noise_LA01;noise_LA95
66747;Laerm;53658;50.742;10.864;2023-09-07T00:01:55;38.66;35.04;40.71;;
66747;Laerm;53658;50.742;10.864;2023-09-07T00:04:21;38.64;35.66;40.89;;
66747;Laerm;53658;50.742;10.864;2023-09-07T00:06:49;38.63;35.36;40.80;;
66747;Laerm;53658;50.742;10.864;2023-09-07T00:09:18;38.67;35.66;44.51;;
66747;Laerm;53658;50.742;10.864;2023-09-07T00:11:44;38.61;35.04;40.98;;
66747;Laerm;53658;50.742;10.864;2023-09-07T00:14:11;38.63;35.36;41.38;;
66747;Laerm;53658;50.742;10.864;2023-09-07T00:16:37;39.10;35.04;56.94;;
66747;Laerm;53658;50.742;10.864;2023-09-07T00:19:04;38.62;35.66;41.14;;
66747;Laerm;53658;50.742;10.864;2023-09-07T00:21:31;38.63;35.66;41.22;;
66747;Laerm;53658;50.742;10.864;2023-09-07T00:23:56;53.33;28.67;82.71;;
66747;Laerm;53658;50.742;10.864;2023-09-07T00:26:22;53.13;28.67;80.02;;
66747;Laerm;53658;50.742;10.864;2023-09-07T00:28:48;58.69;28.67;79.44;;
66747;Laerm;53658;50.742;10.864;2023-09-07T00:31:14;51.86;34.31;84.30;;
66747;Laerm;53658;50.742;10.864;2023-09-07T00:33:40;38.65;35.04;40.89;;
66747;Laerm;53658;50.742;10.864;2023-09-07T00:36:06;38.62;35.36;47.72;;
66747;Laerm;53658;50.742;10.864;2023-09-07T00:38:32;38.61;35.04;40.71;;
66747;Laerm;53658;50.742;10.864;2023-09-07T00:40:58;38.63;35.36;41.06;;
66747;Laerm;53658;50.742;10.864;2023-09-07T00:43:23;38.64;35.36;40.89;;
66747;Laerm;53658;50.742;10.864;2023-09-07T00:45:49;38.66;35.66;40.80;;
66747;Laerm;53658;50.742;10.864;2023-09-07T00:48:16;38.65;35.94;41.22;;
66747;Laerm;53658;50.742;10.864;2023-09-07T00:50:43;38.58;35.36;41.22;;
66747;Laerm;53658;50.742;10.864;2023-09-07T00:53:10;39.37;35.36;65.28;;
66747;Laerm;53658;50.742;10.864;2023-09-07T00:55:37;38.64;35.66;40.80;;
66747;Laerm;53658;50.742;10.864;2023-09-07T00:58:04;38.59;35.04;40.71;;
66747;Laerm;53658;50.742;10.864;2023-09-07T01:00:30;38.59;35.66;40.71;;
66747;Laerm;53658;50.742;10.864;2023-09-07T01:02:57;38.52;35.66;40.98;;
66747;Laerm;53658;50.742;10.864;2023-09-07T01:05:32;38.53;35.36;40.71;;
66747;Laerm;53658;50.742;10.864;2023-09-07T01:08:12;38.53;35.66;40.80;;
66747;Laerm;53658;50.742;10.864;2023-09-07T01:10:40;38.55;35.36;41.14;;
66747;Laerm;53658;50.742;10.864;2023-09-07T01:13:06;57.98;34.69;94.12;;
66747;Laerm;53658;50.742;10.864;2023-09-07T01:15:32;38.53;34.69;40.62;;
66747;Laerm;53658;50.742;10.864;2023-09-07T01:17:58;38.51;35.36;40.98;;
66747;Laerm;53658;50.742;10.864;2023-09-07T01:20:25;38.56;35.36;49.52;;
66747;Laerm;53658;50.742;10.864;2023-09-07T01:22:53;38.53;35.04;41.53;;
66747;Laerm;53658;50.742;10.864;2023-09-07T01:25:20;38.52;34.69;45.17;;
66747;Laerm;53658;50.742;10.864;2023-09-07T01:27:46;38.62;34.69;43.77;;
66747;Laerm;53658;50.742;10.864;2023-09-07T01:30:12;38.56;35.36;41.14;;
66747;Laerm;53658;50.742;10.864;2023-09-07T01:32:39;38.54;35.36;42.58;;
66747;Laerm;53658;50.742;10.864;2023-09-07T01:35:06;38.51;35.04;40.98;;
66747;Laerm;53658;50.742;10.864;2023-09-07T01:37:35;38.51;35.36;42.29;;
66747;Laerm;53658;50.742;10.864;2023-09-07T01:40:03;38.49;35.36;41.75;;
66747;Laerm;53658;50.742;10.864;2023-09-07T01:42:33;38.49;35.04;43.63;;
66747;Laerm;53658;50.742;10.864;2023-09-07T01:44:59;38.52;35.36;46.95;;
66747;Laerm;53658;50.742;10.864;2023-09-07T01:47:25;38.48;35.66;44.47;;
66747;Laerm;53658;50.742;10.864;2023-09-07T01:49:51;38.46;35.59;42.16;;
66747;Laerm;53658;50.742;10.864;2023-09-07T01:52:16;38.51;35.31;40.89;;
66747;Laerm;53658;50.742;10.864;2023-09-07T01:54:42;38.51;35.36;41.22;;
66747;Laerm;53658;50.742;10.864;2023-09-07T01:57:08;38.62;35.36;44.80;;
66747;Laerm;53658;50.742;10.864;2023-09-07T01:59:35;38.53;35.36;41.38;;
66747;Laerm;53658;50.742;10.864;2023-09-07T02:02:01;38.53;35.66;40.98;;
66747;Laerm;53658;50.742;10.864;2023-09-07T02:04:27;38.52;35.04;41.19;;
66747;Laerm;53658;50.742;10.864;2023-09-07T02:06:52;38.47;35.36;41.53;;
66747;Laerm;53658;50.742;10.864;2023-09-07T02:09:18;38.53;35.36;41.96;;
66747;Laerm;53658;50.742;10.864;2023-09-07T02:11:44;38.49;35.04;44.11;;
66747;Laerm;53658;50.742;10.864;2023-09-07T02:14:10;38.49;34.31;40.98;;
66747;Laerm;53658;50.742;10.864;2023-09-07T02:16:36;38.48;35.36;42.59;;
66747;Laerm;53658;50.742;10.864;2023-09-07T02:19:04;38.44;35.04;40.80;;
66747;Laerm;53658;50.742;10.864;2023-09-07T02:21:30;38.45;35.36;40.71;;
66747;Laerm;53658;50.742;10.864;2023-09-07T02:23:56;46.71;35.36;81.80;;
66747;Laerm;53658;50.742;10.864;2023-09-07T02:26:22;38.96;36.20;43.63;;
66747;Laerm;53658;50.742;10.864;2023-09-07T02:28:48;38.64;35.66;41.30;;
66747;Laerm;53658;50.742;10.864;2023-09-07T02:31:14;38.70;35.66;41.30;;
66747;Laerm;53658;50.742;10.864;2023-09-07T02:33:40;38.59;35.36;45.39;;
66747;Laerm;53658;50.742;10.864;2023-09-07T02:36:06;55.09;34.69;91.19;;
66747;Laerm;53658;50.742;10.864;2023-09-07T02:38:32;50.41;26.91;86.33;;
66747;Laerm;53658;50.742;10.864;2023-09-07T02:40:58;48.30;35.04;83.76;;
66747;Laerm;53658;50.742;10.864;2023-09-07T02:43:24;56.68;33.55;91.14;;
66747;Laerm;53658;50.742;10.864;2023-09-07T02:45:50;38.77;35.66;41.06;;
66747;Laerm;53658;50.742;10.864;2023-09-07T02:48:18;38.68;35.04;45.77;;
66747;Laerm;53658;50.742;10.864;2023-09-07T02:50:44;38.77;35.01;45.23;;
66747;Laerm;53658;50.742;10.864;2023-09-07T02:53:15;38.65;35.36;46.28;;
66747;Laerm;53658;50.742;10.864;2023-09-07T02:55:41;38.65;35.36;40.89;;
66747;Laerm;53658;50.742;10.864;2023-09-07T02:58:07;38.68;35.04;41.14;;
66747;Laerm;53658;50.742;10.864;2023-09-07T03:00:33;38.63;34.69;40.80;;
66747;Laerm;53658;50.742;10.864;2023-09-07T03:03:01;40.35;35.66;70.25;;
66747;Laerm;53658;50.742;10.864;2023-09-07T03:05:28;38.87;35.04;42.29;;
66747;Laerm;53658;50.742;10.864;2023-09-07T03:07:54;38.67;34.69;41.30;;
66747;Laerm;53658;50.742;10.864;2023-09-07T03:10:20;38.76;35.04;40.89;;
66747;Laerm;53658;50.742;10.864;2023-09-07T03:12:46;38.74;34.31;42.29;;
66747;Laerm;53658;50.742;10.864;2023-09-07T03:15:13;38.71;35.04;41.38;;
66747;Laerm;53658;50.742;10.864;2023-09-07T03:17:40;38.62;35.59;40.98;;
66747;Laerm;53658;50.742;10.864;2023-09-07T03:20:07;38.59;34.31;41.30;;
66747;Laerm;53658;50.742;10.864;2023-09-07T03:22:46;38.68;35.36;40.98;;
66747;Laerm;53658;50.742;10.864;2023-09-07T03:25:14;38.66;35.59;41.22;;
66747;Laerm;53658;50.742;10.864;2023-09-07T03:27:40;38.68;35.36;41.14;;
66747;Laerm;53658;50.742;10.864;2023-09-07T03:30:09;38.60;35.36;41.06;;
66747;Laerm;53658;50.742;10.864;2023-09-07T03:32:36;38.56;33.90;40.98;;
66747;Laerm;53658;50.742;10.864;2023-09-07T03:35:04;38.52;35.04;40.80;;
66747;Laerm;53658;50.742;10.864;2023-09-07T03:37:35;38.51;35.66;40.80;;
66747;Laerm;53658;50.742;10.864;2023-09-07T03:40:03;38.54;35.36;40.80;;
66747;Laerm;53658;50.742;10.864;2023-09-07T03:42:31;38.52;35.04;43.29;;
66747;Laerm;53658;50.742;10.864;2023-09-07T03:44:57;38.47;35.04;40.63;;
66747;Laerm;53658;50.742;10.864;2023-09-07T03:47:23;38.48;35.04;41.06;;
66747;Laerm;53658;50.742;10.864;2023-09-07T03:49:55;38.50;35.36;41.38;;
66747;Laerm;53658;50.742;10.864;2023-09-07T03:52:23;39.84;35.66;70.01;;
66747;Laerm;53658;50.742;10.864;2023-09-07T03:54:51;38.54;34.31;41.19;;
66747;Laerm;53658;50.742;10.864;2023-09-07T03:57:18;38.50;35.04;41.14;;
66747;Laerm;53658;50.742;10.864;2023-09-07T03:59:47;38.45;35.04;40.80;;
66747;Laerm;53658;50.742;10.864;2023-09-07T04:02:14;38.47;34.69;40.98;;
66747;Laerm;53658;50.742;10.864;2023-09-07T04:04:40;38.41;35.36;40.89;;
66747;Laerm;53658;50.742;10.864;2023-09-07T04:07:06;38.45;35.36;41.06;;
66747;Laerm;53658;50.742;10.864;2023-09-07T04:09:32;38.42;35.36;40.53;;
66747;Laerm;53658;50.742;10.864;2023-09-07T04:11:58;38.43;35.59;44.23;;
66747;Laerm;53658;50.742;10.864;2023-09-07T04:14:24;38.43;35.01;40.62;;
66747;Laerm;53658;50.742;10.864;2023-09-07T04:16:50;38.38;34.69;48.36;;
66747;Laerm;53658;50.742;10.864;2023-09-07T04:19:17;38.39;35.36;47.34;;
66747;Laerm;53658;50.742;10.864;2023-09-07T04:21:43;38.37;35.04;40.71;;
66747;Laerm;53658;50.742;10.864;2023-09-07T04:24:09;38.42;35.04;41.06;;
66747;Laerm;53658;50.742;10.864;2023-09-07T04:26:37;38.42;34.69;40.89;;
66747;Laerm;53658;50.742;10.864;2023-09-07T04:29:03;38.58;34.69;40.98;;
66747;Laerm;53658;50.742;10.864;2023-09-07T04:31:29;38.33;35.36;41.46;;
66747;Laerm;53658;50.742;10.864;2023-09-07T04:33:55;38.41;35.01;51.21;;
66747;Laerm;53658;50.742;10.864;2023-09-07T04:36:21;38.33;34.69;40.53;;
66747;Laerm;53658;50.742;10.864;2023-09-07T04:38:48;38.41;33.90;46.41;;
66747;Laerm;53658;50.742;10.864;2023-09-07T04:41:15;38.36;35.01;40.80;;
66747;Laerm;53658;50.742;10.864;2023-09-07T04:43:43;38.35;34.69;40.89;;
66747;Laerm;53658;50.742;10.864;2023-09-07T04:46:10;38.32;35.04;40.98;;
66747;Laerm;53658;50.742;10.864;2023-09-07T04:48:36;38.35;35.04;40.62;;
66747;Laerm;53658;50.742;10.864;2023-09-07T04:51:07;38.35;35.04;40.89;;
66747;Laerm;53658;50.742;10.864;2023-09-07T04:53:36;38.30;34.69;40.80;;
66747;Laerm;53658;50.742;10.864;2023-09-07T04:56:05;38.29;34.31;40.43;;
66747;Laerm;53658;50.742;10.864;2023-09-07T04:58:31;38.35;35.04;56.92;;
66747;Laerm;53658;50.742;10.864;2023-09-07T05:01:11;49.11;35.04;85.25;;
66747;Laerm;53658;50.742;10.864;2023-09-07T05:03:38;38.26;35.04;40.43;;
66747;Laerm;53658;50.742;10.864;2023-09-07T05:06:07;38.32;34.31;55.36;;
66747;Laerm;53658;50.742;10.864;2023-09-07T05:08:33;38.34;34.69;43.44;;
66747;Laerm;53658;50.742;10.864;2023-09-07T05:11:02;38.36;34.69;41.46;;
66747;Laerm;53658;50.742;10.864;2023-09-07T05:13:28;38.34;34.69;40.80;;
66747;Laerm;53658;50.742;10.864;2023-09-07T05:15:57;38.34;33.90;41.22;;
66747;Laerm;53658;50.742;10.864;2023-09-07T05:18:23;38.33;35.04;41.14;;
66747;Laerm;53658;50.742;10.864;2023-09-07T05:20:49;38.30;35.36;40.43;;
66747;Laerm;53658;50.742;10.864;2023-09-07T05:23:18;38.30;34.69;40.53;;
66747;Laerm;53658;50.742;10.864;2023-09-07T05:25:45;38.31;35.04;41.14;;
66747;Laerm;53658;50.742;10.864;2023-09-07T05:28:13;38.29;34.69;40.62;;
66747;Laerm;53658;50.742;10.864;2023-09-07T05:30:40;38.29;34.69;41.89;;
66747;Laerm;53658;50.742;10.864;2023-09-07T05:33:08;38.28;33.90;40.89;;
66747;Laerm;53658;50.742;10.864;2023-09-07T05:35:34;38.33;35.04;40.98;;
66747;Laerm;53658;50.742;10.864;2023-09-07T05:38:02;38.29;34.31;40.71;;
66747;Laerm;53658;50.742;10.864;2023-09-07T05:40:28;38.30;35.04;40.62;;
66747;Laerm;53658;50.742;10.864;2023-09-07T05:42:54;38.35;34.69;46.05;;
66747;Laerm;53658;50.742;10.864;2023-09-07T05:45:20;38.33;35.04;40.96;;
66747;Laerm;53658;50.742;10.864;2023-09-07T05:47:46;38.30;34.69;40.98;;
66747;Laerm;53658;50.742;10.864;2023-09-07T05:50:12;38.34;35.04;40.98;;
66747;Laerm;53658;50.742;10.864;2023-09-07T05:52:38;38.37;34.69;40.98;;
66747;Laerm;53658;50.742;10.864;2023-09-07T05:55:05;38.35;34.69;42.82;;
66747;Laerm;53658;50.742;10.864;2023-09-07T05:57:31;38.37;35.04;41.06;;
66747;Laerm;53658;50.742;10.864;2023-09-07T05:59:57;38.34;34.69;45.94;;
66747;Laerm;53658;50.742;10.864;2023-09-07T06:02:23;38.36;35.04;40.80;;
66747;Laerm;53658;50.742;10.864;2023-09-07T06:04:49;39.42;34.69;58.66;;
66747;Laerm;53658;50.742;10.864;2023-09-07T06:07:15;38.44;35.04;40.89;;
66747;Laerm;53658;50.742;10.864;2023-09-07T06:09:41;57.22;34.69;93.35;;
66747;Laerm;53658;50.742;10.864;2023-09-07T06:12:07;38.74;34.31;52.14;;
66747;Laerm;53658;50.742;10.864;2023-09-07T06:14:34;38.58;35.36;42.29;;
66747;Laerm;53658;50.742;10.864;2023-09-07T06:17:00;38.63;34.69;41.22;;
66747;Laerm;53658;50.742;10.864;2023-09-07T06:19:25;38.44;34.69;40.71;;
66747;Laerm;53658;50.742;10.864;2023-09-07T06:21:51;38.45;34.31;41.06;;
66747;Laerm;53658;50.742;10.864;2023-09-07T06:24:17;38.46;35.04;40.89;;
66747;Laerm;53658;50.742;10.864;2023-09-07T06:26:43;38.41;35.04;41.26;;
66747;Laerm;53658;50.742;10.864;2023-09-07T06:29:10;38.45;34.69;41.46;;
66747;Laerm;53658;50.742;10.864;2023-09-07T06:31:36;38.40;34.31;40.80;;
66747;Laerm;53658;50.742;10.864;2023-09-07T06:34:02;38.41;35.04;40.89;;
66747;Laerm;53658;50.742;10.864;2023-09-07T06:36:29;38.42;35.04;41.14;;
66747;Laerm;53658;50.742;10.864;2023-09-07T06:38:56;38.36;35.04;40.89;;
66747;Laerm;53658;50.742;10.864;2023-09-07T06:41:22;49.31;30.89;85.12;;
66747;Laerm;53658;50.742;10.864;2023-09-07T06:43:51;58.89;35.04;95.11;;
66747;Laerm;53658;50.742;10.864;2023-09-07T06:46:18;48.62;36.45;83.42;;
66747;Laerm;53658;50.742;10.864;2023-09-07T06:48:44;41.05;36.20;67.73;;
66747;Laerm;53658;50.742;10.864;2023-09-07T06:51:10;39.50;35.36;41.82;;
66747;Laerm;53658;50.742;10.864;2023-09-07T06:53:36;39.34;35.66;41.48;;
66747;Laerm;53658;50.742;10.864;2023-09-07T06:56:03;39.24;36.20;41.68;;
66747;Laerm;53658;50.742;10.864;2023-09-07T06:58:30;39.17;35.36;46.45;;
66747;Laerm;53658;50.742;10.864;2023-09-07T07:00:58;39.05;35.66;41.46;;
66747;Laerm;53658;50.742;10.864;2023-09-07T07:03:28;39.06;35.66;48.67;;
66747;Laerm;53658;50.742;10.864;2023-09-07T07:05:55;39.10;35.66;41.53;;
66747;Laerm;53658;50.742;10.864;2023-09-07T07:08:21;39.16;35.04;49.70;;
66747;Laerm;53658;50.742;10.864;2023-09-07T07:10:47;39.09;35.31;41.46;;
66747;Laerm;53658;50.742;10.864;2023-09-07T07:13:13;39.06;35.36;43.99;;
66747;Laerm;53658;50.742;10.864;2023-09-07T07:15:40;39.12;35.36;41.82;;
66747;Laerm;53658;50.742;10.864;2023-09-07T07:18:06;39.03;35.66;41.68;;
66747;Laerm;53658;50.742;10.864;2023-09-07T07:20:39;38.86;35.31;45.04;;
66747;Laerm;53658;50.742;10.864;2023-09-07T07:23:05;38.85;35.04;43.04;;
66747;Laerm;53658;50.742;10.864;2023-09-07T07:25:34;38.78;35.04;41.82;;
66747;Laerm;53658;50.742;10.864;2023-09-07T07:28:02;38.91;35.36;41.53;;
66747;Laerm;53658;50.742;10.864;2023-09-07T07:30:39;39.50;37.12;42.35;;
66747;Laerm;53658;50.742;10.864;2023-09-07T07:33:07;39.91;37.70;42.65;;
66747;Laerm;53658;50.742;10.864;2023-09-07T07:35:35;40.49;38.05;44.03;;
66747;Laerm;53658;50.742;10.864;2023-09-07T07:38:04;40.54;38.21;41.89;;
66747;Laerm;53658;50.742;10.864;2023-09-07T07:40:32;40.51;38.52;42.09;;
66747;Laerm;53658;50.742;10.864;2023-09-07T07:42:59;40.66;38.52;42.22;;
66747;Laerm;53658;50.742;10.864;2023-09-07T07:45:26;40.60;38.37;42.41;;
66747;Laerm;53658;50.742;10.864;2023-09-07T07:47:53;40.56;38.52;42.35;;
66747;Laerm;53658;50.742;10.864;2023-09-07T07:50:19;40.53;38.37;42.29;;
66747;Laerm;53658;50.742;10.864;2023-09-07T07:52:46;40.39;38.21;42.13;;
66747;Laerm;53658;50.742;10.864;2023-09-07T07:55:13;40.23;37.52;42.41;;
66747;Laerm;53658;50.742;10.864;2023-09-07T07:57:40;39.85;36.91;41.75;;
66747;Laerm;53658;50.742;10.864;2023-09-07T08:00:09;39.52;36.45;41.75;;
66747;Laerm;53658;50.742;10.864;2023-09-07T08:02:47;39.47;35.66;41.75;;
66747;Laerm;53658;50.742;10.864;2023-09-07T08:05:14;39.33;36.20;41.75;;
66747;Laerm;53658;50.742;10.864;2023-09-07T08:07:40;39.33;36.69;41.46;;
66747;Laerm;53658;50.742;10.864;2023-09-07T08:10:06;39.28;35.66;41.46;;
66747;Laerm;53658;50.742;10.864;2023-09-07T08:12:32;39.34;35.66;41.82;;
66747;Laerm;53658;50.742;10.864;2023-09-07T08:14:58;39.15;35.66;41.30;;
66747;Laerm;53658;50.742;10.864;2023-09-07T08:17:24;39.18;35.66;41.38;;
66747;Laerm;53658;50.742;10.864;2023-09-07T08:19:51;39.03;35.66;41.46;;
66747;Laerm;53658;50.742;10.864;2023-09-07T08:22:22;39.03;33.90;42.29;;
66747;Laerm;53658;50.742;10.864;2023-09-07T08:24:48;38.86;34.31;41.53;;
66747;Laerm;53658;50.742;10.864;2023-09-07T08:27:17;38.70;34.69;41.38;;
66747;Laerm;53658;50.742;10.864;2023-09-07T08:29:47;38.79;34.31;41.96;;
66747;Laerm;53658;50.742;10.864;2023-09-07T08:32:14;38.75;34.69;41.53;;
66747;Laerm;53658;50.742;10.864;2023-09-07T08:34:40;38.72;34.69;41.22;;
66747;Laerm;53658;50.742;10.864;2023-09-07T08:37:07;38.51;34.69;41.89;;
66747;Laerm;53658;50.742;10.864;2023-09-07T08:39:35;38.39;33.44;41.38;;
66747;Laerm;53658;50.742;10.864;2023-09-07T08:42:08;38.37;34.31;40.71;;
66747;Laerm;53658;50.742;10.864;2023-09-07T08:44:37;38.46;32.93;41.46;;
66747;Laerm;53658;50.742;10.864;2023-09-07T08:47:04;38.44;34.31;41.06;;
66747;Laerm;53658;50.742;10.864;2023-09-07T08:49:30;38.35;32.93;41.14;;
66747;Laerm;53658;50.742;10.864;2023-09-07T08:51:59;38.18;33.44;40.89;;
66747;Laerm;53658;50.742;10.864;2023-09-07T08:54:26;38.28;33.90;42.35;;
66747;Laerm;53658;50.742;10.864;2023-09-07T08:56:53;38.17;33.90;41.22;;
66747;Laerm;53658;50.742;10.864;2023-09-07T08:59:22;38.11;32.93;40.80;;
66747;Laerm;53658;50.742;10.864;2023-09-07T09:01:48;38.00;33.90;41.06;;
66747;Laerm;53658;50.742;10.864;2023-09-07T09:04:15;37.90;32.58;40.62;;
66747;Laerm;53658;50.742;10.864;2023-09-07T09:06:41;37.94;32.93;40.71;;
66747;Laerm;53658;50.742;10.864;2023-09-07T09:09:07;37.91;32.93;40.53;;
66747;Laerm;53658;50.742;10.864;2023-09-07T09:11:33;37.90;32.35;41.14;;
66747;Laerm;53658;50.742;10.864;2023-09-07T09:13:59;37.81;32.93;41.14;;
66747;Laerm;53658;50.742;10.864;2023-09-07T09:16:25;37.88;32.35;40.98;;
66747;Laerm;53658;50.742;10.864;2023-09-07T09:18:53;37.81;31.68;41.46;;
66747;Laerm;53658;50.742;10.864;2023-09-07T09:21:27;37.75;32.93;41.96;;
66747;Laerm;53658;50.742;10.864;2023-09-07T09:23:54;37.73;30.89;40.43;;
66747;Laerm;53658;50.742;10.864;2023-09-07T09:26:23;37.69;32.35;41.06;;
66747;Laerm;53658;50.742;10.864;2023-09-07T09:28:49;37.94;29.92;42.22;;
66747;Laerm;53658;50.742;10.864;2023-09-07T09:31:18;37.66;29.92;41.22;;
66747;Laerm;53658;50.742;10.864;2023-09-07T09:33:49;37.55;31.68;40.43;;
66747;Laerm;53658;50.742;10.864;2023-09-07T09:36:17;37.71;29.92;41.06;;
66747;Laerm;53658;50.742;10.864;2023-09-07T09:38:48;37.56;30.89;40.43;;
66747;Laerm;53658;50.742;10.864;2023-09-07T09:41:16;37.81;32.35;40.36;;
66747;Laerm;53658;50.742;10.864;2023-09-07T09:43:43;37.54;30.89;41.14;;
66747;Laerm;53658;50.742;10.864;2023-09-07T09:46:12;37.56;32.35;40.53;;
66747;Laerm;53658;50.742;10.864;2023-09-07T09:48:40;37.60;32.35;40.62;;
66747;Laerm;53658;50.742;10.864;2023-09-07T09:51:07;37.55;31.68;40.33;;
66747;Laerm;53658;50.742;10.864;2023-09-07T09:53:33;37.73;31.68;43.14;;
66747;Laerm;53658;50.742;10.864;2023-09-07T09:56:00;37.40;30.89;40.43;;
66747;Laerm;53658;50.742;10.864;2023-09-07T09:58:26;37.46;32.35;40.27;;
66747;Laerm;53658;50.742;10.864;2023-09-07T10:00:57;37.47;30.89;40.89;;
66747;Laerm;53658;50.742;10.864;2023-09-07T10:03:31;37.66;31.68;41.30;;
66747;Laerm;53658;50.742;10.864;2023-09-07T10:06:08;37.47;32.35;40.53;;
66747;Laerm;53658;50.742;10.864;2023-09-07T10:08:34;37.39;30.89;40.33;;
66747;Laerm;53658;50.742;10.864;2023-09-07T10:11:07;37.39;30.89;40.33;;
66747;Laerm;53658;50.742;10.864;2023-09-07T10:13:34;37.36;31.68;40.62;;
66747;Laerm;53658;50.742;10.864;2023-09-07T10:16:04;37.60;28.67;40.71;;
66747;Laerm;53658;50.742;10.864;2023-09-07T10:18:35;37.41;31.68;40.43;;
66747;Laerm;53658;50.742;10.864;2023-09-07T10:21:01;37.99;28.67;42.93;;
66747;Laerm;53658;50.742;10.864;2023-09-07T10:23:40;37.37;31.68;41.38;;
66747;Laerm;53658;50.742;10.864;2023-09-07T10:26:15;37.32;31.68;42.47;;
66747;Laerm;53658;50.742;10.864;2023-09-07T10:28:43;38.24;31.68;56.03;;
66747;Laerm;53658;50.742;10.864;2023-09-07T10:31:18;37.42;30.89;45.60;;
66747;Laerm;53658;50.742;10.864;2023-09-07T10:33:45;37.34;31.33;41.14;;
66747;Laerm;53658;50.742;10.864;2023-09-07T10:36:21;37.27;32.35;40.23;;
66747;Laerm;53658;50.742;10.864;2023-09-07T10:38:48;37.49;31.68;41.06;;
66747;Laerm;53658;50.742;10.864;2023-09-07T10:41:13;37.25;30.89;40.63;;
66747;Laerm;53658;50.742;10.864;2023-09-07T10:43:48;37.23;31.68;40.71;;
66747;Laerm;53658;50.742;10.864;2023-09-07T10:46:14;37.23;32.00;40.23;;
66747;Laerm;53658;50.742;10.864;2023-09-07T10:48:40;37.37;30.89;41.14;;
66747;Laerm;53658;50.742;10.864;2023-09-07T10:51:07;37.24;30.89;40.80;;
66747;Laerm;53658;50.742;10.864;2023-09-07T10:53:34;37.20;30.89;40.43;;
66747;Laerm;53658;50.742;10.864;2023-09-07T10:56:03;37.41;28.67;42.09;;
66747;Laerm;53658;50.742;10.864;2023-09-07T10:58:35;37.35;29.92;41.96;;
66747;Laerm;53658;50.742;10.864;2023-09-07T11:01:02;37.33;30.89;41.11;;
66747;Laerm;53658;50.742;10.864;2023-09-07T11:03:31;37.24;29.92;41.30;;
66747;Laerm;53658;50.742;10.864;2023-09-07T11:06:23;37.17;29.92;41.14;;
66747;Laerm;53658;50.742;10.864;2023-09-07T11:08:49;37.18;30.89;40.43;;
66747;Laerm;53658;50.742;10.864;2023-09-07T11:11:15;37.49;30.89;42.59;;
66747;Laerm;53658;50.742;10.864;2023-09-07T11:13:42;37.13;30.89;40.33;;
66747;Laerm;53658;50.742;10.864;2023-09-07T11:16:09;37.15;30.89;40.33;;
66747;Laerm;53658;50.742;10.864;2023-09-07T11:18:36;37.14;30.89;40.96;;
66747;Laerm;53658;50.742;10.864;2023-09-07T11:21:02;37.35;30.89;41.38;;
66747;Laerm;53658;50.742;10.864;2023-09-07T11:23:33;37.51;30.89;42.47;;
66747;Laerm;53658;50.742;10.864;2023-09-07T11:26:07;37.41;30.89;42.13;;
66747;Laerm;53658;50.742;10.864;2023-09-07T11:28:33;37.31;28.67;41.38;;
66747;Laerm;53658;50.742;10.864;2023-09-07T11:30:59;37.37;30.89;43.09;;
66747;Laerm;53658;50.742;10.864;2023-09-07T11:33:26;37.08;29.92;40.43;;
66747;Laerm;53658;50.742;10.864;2023-09-07T11:35:52;37.23;29.92;40.03;;
66747;Laerm;53658;50.742;10.864;2023-09-07T11:38:21;37.20;28.67;41.14;;
66747;Laerm;53658;50.742;10.864;2023-09-07T11:40:48;37.27;31.68;40.23;;
66747;Laerm;53658;50.742;10.864;2023-09-07T11:43:15;37.22;29.92;40.43;;
66747;Laerm;53658;50.742;10.864;2023-09-07T11:45:43;37.28;26.91;40.33;;
66747;Laerm;53658;50.742;10.864;2023-09-07T11:48:10;37.22;30.89;40.53;;
66747;Laerm;53658;50.742;10.864;2023-09-07T11:50:37;37.28;29.92;40.36;;
66747;Laerm;53658;50.742;10.864;2023-09-07T11:53:04;37.32;30.89;40.89;;
66747;Laerm;53658;50.742;10.864;2023-09-07T11:55:31;37.57;29.92;43.63;;
66747;Laerm;53658;50.742;10.864;2023-09-07T11:57:57;37.22;28.67;40.53;;
66747;Laerm;53658;50.742;10.864;2023-09-07T12:00:23;37.22;29.92;40.33;;
66747;Laerm;53658;50.742;10.864;2023-09-07T12:02:49;37.34;30.89;41.26;;
66747;Laerm;53658;50.742;10.864;2023-09-07T12:05:15;37.25;30.89;40.62;;
66747;Laerm;53658;50.742;10.864;2023-09-07T12:07:42;37.28;31.68;40.62;;
66747;Laerm;53658;50.742;10.864;2023-09-07T12:10:11;37.26;30.89;40.33;;
66747;Laerm;53658;50.742;10.864;2023-09-07T12:12:40;37.22;31.68;40.13;;
66747;Laerm;53658;50.742;10.864;2023-09-07T12:15:07;37.32;29.92;42.47;;
66747;Laerm;53658;50.742;10.864;2023-09-07T12:17:33;37.46;29.92;41.41;;
66747;Laerm;53658;50.742;10.864;2023-09-07T12:19:59;37.29;31.33;40.62;;
66747;Laerm;53658;50.742;10.864;2023-09-07T12:22:30;37.43;31.68;41.61;;
66747;Laerm;53658;50.742;10.864;2023-09-07T12:24:56;37.24;28.67;40.62;;
66747;Laerm;53658;50.742;10.864;2023-09-07T12:27:22;37.31;29.92;41.68;;
66747;Laerm;53658;50.742;10.864;2023-09-07T12:29:48;37.54;29.92;41.89;;
66747;Laerm;53658;50.742;10.864;2023-09-07T12:32:14;37.24;31.68;40.79;;
66747;Laerm;53658;50.742;10.864;2023-09-07T12:34:40;37.35;30.89;41.53;;
66747;Laerm;53658;50.742;10.864;2023-09-07T12:37:06;37.42;31.68;41.38;;
66747;Laerm;53658;50.742;10.864;2023-09-07T12:39:32;37.33;30.89;41.33;;
66747;Laerm;53658;50.742;10.864;2023-09-07T12:41:58;37.45;31.68;41.14;;
66747;Laerm;53658;50.742;10.864;2023-09-07T12:44:24;37.21;30.89;40.43;;
66747;Laerm;53658;50.742;10.864;2023-09-07T12:46:50;37.29;30.89;40.43;;
66747;Laerm;53658;50.742;10.864;2023-09-07T12:49:16;37.32;30.89;40.80;;
66747;Laerm;53658;50.742;10.864;2023-09-07T12:51:42;37.42;31.68;41.46;;
66747;Laerm;53658;50.742;10.864;2023-09-07T12:54:08;37.31;29.92;41.30;;
66747;Laerm;53658;50.742;10.864;2023-09-07T12:56:34;37.20;31.68;40.43;;
66747;Laerm;53658;50.742;10.864;2023-09-07T12:59:00;37.19;28.67;40.43;;
66747;Laerm;53658;50.742;10.864;2023-09-07T13:01:26;37.21;26.91;40.43;;
66747;Laerm;53658;50.742;10.864;2023-09-07T13:03:52;37.20;30.89;40.03;;
66747;Laerm;53658;50.742;10.864;2023-09-07T13:06:19;37.23;29.92;40.33;;
66747;Laerm;53658;50.742;10.864;2023-09-07T13:08:45;37.24;30.89;42.03;;
66747;Laerm;53658;50.742;10.864;2023-09-07T13:11:11;37.21;30.89;40.13;;
66747;Laerm;53658;50.742;10.864;2023-09-07T13:13:37;37.18;29.92;40.13;;
66747;Laerm;53658;50.742;10.864;2023-09-07T13:16:04;37.64;30.89;43.49;;
66747;Laerm;53658;50.742;10.864;2023-09-07T13:18:30;37.31;29.92;40.43;;
66747;Laerm;53658;50.742;10.864;2023-09-07T13:20:56;37.51;29.92;42.16;;
66747;Laerm;53658;50.742;10.864;2023-09-07T13:23:27;37.28;30.89;40.23;;
66747;Laerm;53658;50.742;10.864;2023-09-07T13:25:54;37.27;28.67;40.23;;
66747;Laerm;53658;50.742;10.864;2023-09-07T13:28:21;37.32;31.68;41.06;;
66747;Laerm;53658;50.742;10.864;2023-09-07T13:30:47;37.21;31.68;40.43;;
66747;Laerm;53658;50.742;10.864;2023-09-07T13:33:13;37.27;30.89;40.80;;